MV Melite — V7TM5 — position and weather

sailwx.info

Track history (hours):
 
Tides and Currents Weather Stations Pressure Air Temp Water Temp Dewpoint Dewpoint Depression Visibility Wind Speed Wind Dir Waves Ship Positions

MV Melite

Last reported at 2016-Jul-14 01:31 UTC. Time now 2016-Jul-26 16:00 UTC.
Position N 01°56' E 102°18'.
Warning: this ship's position is 12 days out of date.

Length 225 m; draft 14.3 m.

Type: Cargo ship. MMSI: 538003832.

Date/timePositionNaut miles runAvg speedWind from/ knotsBaromVisibWave heightAir tempDewpointWater temp
2016-Jul-14 01:31N 01°56' E 102°18'1111.4
2016-Jul-14 00:33N 01°51' E 102°28'1111.2
2016-Jul-13 23:32N 01°46' E 102°38'6810.7
2016-Jul-13 17:12N 01°12' E 103°36'710.4
2016-Jul-13 16:33N 01°09' E 103°43'9 8.7
2016-Jul-13 15:33N 01°12' E 103°51'7 7.2
2016-Jul-13 14:33N 01°16' E 103°57'1 0.6
2016-Jul-13 13:11N 01°17' E 103°57'0 0.0
2016-Jul-13 12:23N 01°17' E 103°57'0 0.1
2016-Jul-13 11:29N 01°17' E 103°57'0 0.1
2016-Jul-13 10:29N 01°17' E 103°57'0 0.0
2016-Jul-13 09:32N 01°17' E 103°57'0 0.0
2016-Jul-13 08:32N 01°17' E 103°57'0 0.0
2016-Jul-13 07:29N 01°17' E 103°57'0 0.1
2016-Jul-13 06:29N 01°17' E 103°57'0 0.1
2016-Jul-13 05:32N 01°17' E 103°57'0 0.1
2016-Jul-13 04:29N 01°17' E 103°57'0 0.0
2016-Jul-13 03:17N 01°17' E 103°57'0 0.1
2016-Jul-13 02:26N 01°17' E 103°57'0 0.1
2016-Jul-13 01:29N 01°17' E 103°57'0 0.0
2016-Jul-13 00:32N 01°17' E 103°57'2 2.5
2016-Jul-12 23:33N 01°16' E 103°59'5 5.2
2016-Jul-12 22:33N 01°16' E 104°04'  
Track history (hours):
 
Tides and Currents Weather Stations Pressure Air Temp Water Temp Dewpoint Dewpoint Depression Visibility Wind Speed Wind Dir Waves Ship Positions

MV Melite

Last reported at 2016-Jul-14 01:31 UTC. Time now 2016-Jul-26 16:00 UTC.
Position N 01°56' E 102°18'.
Warning: this ship's position is 12 days out of date.

Length 225 m; draft 14.3 m.

Type: Cargo ship. MMSI: 538003832.

Date/timePositionNaut miles runAvg speedWind from/ knotsBaromVisibWave heightAir tempDewpointWater temp
2016-Jul-14 01:31N 01°56' E 102°18'1111.4
2016-Jul-14 00:33N 01°51' E 102°28'1111.2
2016-Jul-13 23:32N 01°46' E 102°38'6810.7
2016-Jul-13 17:12N 01°12' E 103°36'710.4
2016-Jul-13 16:33N 01°09' E 103°43'9 8.7
2016-Jul-13 15:33N 01°12' E 103°51'7 7.2
2016-Jul-13 14:33N 01°16' E 103°57'1 0.6
2016-Jul-13 13:11N 01°17' E 103°57'0 0.0
2016-Jul-13 12:23N 01°17' E 103°57'0 0.1
2016-Jul-13 11:29N 01°17' E 103°57'0 0.1
2016-Jul-13 10:29N 01°17' E 103°57'0 0.0
2016-Jul-13 09:32N 01°17' E 103°57'0 0.0
2016-Jul-13 08:32N 01°17' E 103°57'0 0.0
2016-Jul-13 07:29N 01°17' E 103°57'0 0.1
2016-Jul-13 06:29N 01°17' E 103°57'0 0.1
2016-Jul-13 05:32N 01°17' E 103°57'0 0.1
2016-Jul-13 04:29N 01°17' E 103°57'0 0.0
2016-Jul-13 03:17N 01°17' E 103°57'0 0.1
2016-Jul-13 02:26N 01°17' E 103°57'0 0.1
2016-Jul-13 01:29N 01°17' E 103°57'0 0.0
2016-Jul-13 00:32N 01°17' E 103°57'2 2.5
2016-Jul-12 23:33N 01°16' E 103°59'5 5.2
2016-Jul-12 22:33N 01°16' E 104°04'  

Dump ship's entire track history